createdAt,value
2022-08-16T00:00:29.074Z,69.66
2022-08-16T00:03:05.837Z,70.41
2022-08-16T00:05:35.131Z,70.10
2022-08-16T00:08:35.898Z,69.12
2022-08-16T00:11:00.872Z,69.09
2022-08-16T00:13:27.345Z,70.52
2022-08-16T00:15:55.034Z,69.77
2022-08-16T00:18:22.339Z,70.20
2022-08-16T00:20:56.392Z,70.54
2022-08-16T00:23:24.596Z,70.60
2022-08-16T00:26:33.893Z,71.75
2022-08-16T00:28:54.884Z,72.02
2022-08-16T00:31:24.131Z,71.09
2022-08-16T00:33:51.183Z,71.75
2022-08-16T00:36:17.827Z,71.68
2022-08-16T00:38:44.254Z,72.57
2022-08-16T00:41:11.355Z,71.72
2022-08-16T00:43:42.980Z,71.48
2022-08-16T00:46:22.321Z,71.29
2022-08-16T00:49:05.303Z,71.67
2022-08-16T00:51:32.041Z,71.92
2022-08-16T00:53:58.585Z,73.01
2022-08-16T00:56:58.301Z,72.12
2022-08-16T00:59:18.864Z,72.30
2022-08-16T01:01:46.042Z,72.07
2022-08-16T01:04:28.895Z,73.99
2022-08-16T01:07:01.902Z,73.67
2022-08-16T01:09:33.276Z,73.48
2022-08-16T01:12:03.287Z,73.49
2022-08-16T01:14:35.209Z,74.12
2022-08-16T01:17:03.155Z,73.98
2022-08-16T01:19:34.984Z,73.52
2022-08-16T01:22:48.620Z,74.19
2022-08-16T01:25:02.360Z,73.65
2022-08-16T01:27:57.621Z,73.49
2022-08-16T01:30:28.560Z,73.84
2022-08-16T01:33:02.587Z,73.44
2022-08-16T01:35:47.664Z,73.70
2022-08-16T01:38:34.890Z,73.53
2022-08-16T01:41:06.811Z,72.80
2022-08-16T01:43:36.289Z,72.98
2022-08-16T01:46:37.841Z,73.33
2022-08-16T01:48:59.210Z,73.32
2022-08-16T01:51:27.625Z,74.19
2022-08-16T01:53:55.749Z,74.08
2022-08-16T01:56:25.165Z,73.21
2022-08-16T01:58:54.997Z,74.53
2022-08-16T02:01:22.223Z,74.77
2022-08-16T02:03:50.454Z,74.51
2022-08-16T02:06:33.724Z,74.20
2022-08-16T02:09:01.641Z,74.35
2022-08-16T02:11:28.551Z,74.89
2022-08-16T02:14:18.282Z,74.67
2022-08-16T02:16:48.288Z,75.15
2022-08-16T02:19:16.155Z,74.54
2022-08-16T02:22:09.095Z,74.67
2022-08-16T02:24:42.068Z,74.50
2022-08-16T02:27:10.005Z,75.16
2022-08-16T02:29:37.480Z,74.42
2022-08-16T02:32:50.795Z,74.66
2022-08-16T02:34:56.712Z,74.89
2022-08-16T02:37:23.233Z,75.24
2022-08-16T02:39:54.086Z,77.21
2022-08-16T02:42:21.289Z,75.75
2022-08-16T02:44:47.860Z,75.67
2022-08-16T02:47:25.574Z,75.80
2022-08-16T02:50:34.348Z,76.31
2022-08-16T02:52:39.175Z,76.14
2022-08-16T02:55:11.405Z,75.84
2022-08-16T02:57:38.073Z,75.96
2022-08-16T03:00:34.097Z,77.18
2022-08-16T03:03:01.730Z,76.34
2022-08-16T03:05:31.702Z,77.35
2022-08-16T03:07:59.862Z,77.49
2022-08-16T03:10:33.423Z,77.57
2022-08-16T03:13:00.798Z,77.51
2022-08-16T03:15:28.361Z,77.48
2022-08-16T03:17:56.441Z,78.17
2022-08-16T03:20:32.494Z,77.53
2022-08-16T03:22:59.474Z,79.17
2022-08-16T03:25:26.039Z,77.62
2022-08-16T03:28:09.744Z,78.34
2022-08-16T03:30:38.119Z,77.12
2022-08-16T03:33:05.517Z,77.66
2022-08-16T03:35:37.024Z,77.75
2022-08-16T03:38:34.401Z,78.93
2022-08-16T03:40:57.661Z,78.22
2022-08-16T03:43:24.606Z,78.38
2022-08-16T03:46:10.989Z,79.15
2022-08-16T03:48:40.453Z,79.31
2022-08-16T03:51:12.393Z,78.90
2022-08-16T03:53:40.486Z,79.45
2022-08-16T03:56:19.784Z,79.45
2022-08-16T03:58:48.500Z,79.53
2022-08-16T04:01:17.731Z,80.04
2022-08-16T04:03:44.342Z,79.61
2022-08-16T04:06:10.951Z,79.87
2022-08-16T04:08:39.698Z,79.92
2022-08-16T04:11:06.414Z,80.27
2022-08-16T04:14:00.497Z,81.56
2022-08-16T04:16:26.417Z,81.77
2022-08-16T04:19:02.763Z,81.12
2022-08-16T04:21:46.069Z,81.18
2022-08-16T04:24:14.646Z,80.00
2022-08-16T04:26:46.280Z,79.55
2022-08-16T04:29:21.104Z,80.46
2022-08-16T04:31:56.753Z,80.45
2022-08-16T04:34:30.141Z,81.13
2022-08-16T04:36:57.991Z,80.21
2022-08-16T04:39:46.135Z,79.93
2022-08-16T04:42:17.668Z,79.70
2022-08-16T04:44:53.937Z,80.43
2022-08-16T04:47:24.439Z,80.14
2022-08-16T04:49:52.463Z,79.76
2022-08-16T04:52:34.237Z,81.01
2022-08-16T04:55:16.672Z,80.69
2022-08-16T04:57:44.575Z,81.08
2022-08-16T05:00:31.235Z,80.64
2022-08-16T05:03:10.826Z,81.56
2022-08-16T05:05:45.078Z,82.15
2022-08-16T05:08:28.004Z,80.49
2022-08-16T05:10:59.871Z,80.65
2022-08-16T05:13:40.010Z,81.64
2022-08-16T05:16:11.894Z,80.65
2022-08-16T05:18:43.288Z,81.15
2022-08-16T05:21:12.617Z,81.78
2022-08-16T05:23:39.271Z,81.53
2022-08-16T05:26:05.881Z,81.71
2022-08-16T05:28:46.381Z,80.73
2022-08-16T05:31:13.041Z,80.77
2022-08-16T05:33:42.124Z,81.04
2022-08-16T05:36:14.446Z,80.58
2022-08-16T05:38:41.182Z,80.45
2022-08-16T05:41:09.440Z,80.76
2022-08-16T05:43:43.397Z,81.53
2022-08-16T05:46:29.993Z,81.20
2022-08-16T05:49:03.746Z,80.23
2022-08-16T05:51:37.628Z,80.90
2022-08-16T05:54:11.225Z,80.47
2022-08-16T05:56:38.372Z,79.86
2022-08-16T05:59:06.705Z,80.22
2022-08-16T06:01:38.022Z,80.17
2022-08-16T06:04:12.717Z,79.98
2022-08-16T06:06:43.541Z,79.44
2022-08-16T06:09:24.142Z,80.21
2022-08-16T06:11:51.001Z,80.84
2022-08-16T06:14:17.673Z,80.15
2022-08-16T06:16:44.411Z,80.80
2022-08-16T06:19:17.048Z,80.61
2022-08-16T06:21:43.986Z,79.60
2022-08-16T06:24:54.242Z,79.41
2022-08-16T06:26:57.828Z,78.83
2022-08-16T06:29:24.852Z,78.37
2022-08-16T06:31:51.717Z,77.73
2022-08-16T06:34:31.862Z,77.75
2022-08-16T06:37:05.108Z,78.08
2022-08-16T06:39:34.339Z,77.17
2022-08-16T06:42:01.223Z,78.07
2022-08-16T06:44:27.690Z,76.19
2022-08-16T06:46:54.343Z,76.06
2022-08-16T06:49:21.015Z,75.15
2022-08-16T06:51:48.941Z,74.86
2022-08-16T06:54:16.233Z,74.00
2022-08-16T06:56:43.212Z,72.46
2022-08-16T06:59:10.487Z,70.09
2022-08-16T07:01:46.102Z,70.08
2022-08-16T07:04:32.064Z,68.43
2022-08-16T07:07:01.060Z,66.93
2022-08-16T07:09:29.566Z,66.53
2022-08-16T07:11:57.340Z,66.13
2022-08-16T07:14:31.430Z,65.49
2022-08-16T07:16:59.644Z,64.26
2022-08-16T07:20:01.304Z,63.75
2022-08-16T07:22:47.695Z,63.82
2022-08-16T07:25:04.300Z,62.33
2022-08-16T07:27:32.106Z,61.76
2022-08-16T07:30:00.400Z,61.75
2022-08-16T07:32:29.101Z,61.41
2022-08-16T07:34:56.348Z,61.20
2022-08-16T07:37:23.279Z,59.93
2022-08-16T07:39:50.783Z,59.63
2022-08-16T07:42:20.389Z,59.51
2022-08-16T07:44:57.071Z,56.82
2022-08-16T07:47:24.405Z,58.23
2022-08-16T07:49:53.393Z,57.89
2022-08-16T07:52:24.813Z,58.01
2022-08-16T07:54:57.556Z,55.80
2022-08-16T07:57:24.783Z,54.85
2022-08-16T07:59:51.971Z,56.49
2022-08-16T08:02:20.046Z,57.72
2022-08-16T08:04:47.269Z,57.33
2022-08-16T08:07:16.238Z,56.33
2022-08-16T08:09:43.876Z,56.23
2022-08-16T08:12:32.317Z,56.24
2022-08-16T08:14:57.516Z,55.22
2022-08-16T08:17:24.332Z,54.80
2022-08-16T08:19:53.626Z,56.48
2022-08-16T08:22:22.431Z,56.12
2022-08-16T08:24:53.265Z,56.62
2022-08-16T08:27:22.946Z,55.25
2022-08-16T08:30:48.914Z,53.63
2022-08-16T08:32:57.509Z,52.52
2022-08-16T08:35:24.350Z,51.02
2022-08-16T08:37:55.207Z,50.76
2022-08-16T08:40:24.538Z,51.22
2022-08-16T08:43:00.069Z,52.38
2022-08-16T08:48:34.399Z,51.13
2022-08-16T08:51:04.380Z,49.23
2022-08-16T08:53:32.616Z,47.82
2022-08-16T08:56:00.681Z,49.26
2022-08-16T08:58:54.223Z,50.42
2022-08-16T09:01:36.788Z,50.28
2022-08-16T09:04:10.363Z,49.07
2022-08-16T09:06:43.800Z,50.64
2022-08-16T09:09:16.653Z,48.67
2022-08-16T09:11:47.288Z,47.75
2022-08-16T09:14:24.818Z,48.96
2022-08-16T09:17:03.540Z,49.28
2022-08-16T09:19:37.279Z,47.21
2022-08-16T09:22:19.844Z,48.30
2022-08-16T09:24:53.206Z,48.39
2022-08-16T09:27:23.502Z,47.72
2022-08-16T09:30:00.168Z,47.15
2022-08-16T09:32:30.351Z,47.04
2022-08-16T09:34:58.470Z,46.05
2022-08-16T09:37:29.824Z,43.97
2022-08-16T09:39:58.170Z,43.56
2022-08-16T09:42:27.029Z,41.88
2022-08-16T09:45:10.830Z,41.55
2022-08-16T09:47:56.575Z,43.38
2022-08-16T09:50:36.831Z,43.10
2022-08-16T09:53:15.518Z,41.86
2022-08-16T09:55:49.274Z,40.83
2022-08-16T09:58:40.721Z,40.53
2022-08-16T10:01:05.113Z,40.48
2022-08-16T10:03:31.760Z,41.41
2022-08-16T10:05:58.227Z,41.22
2022-08-16T10:08:26.550Z,41.32
2022-08-16T10:11:12.199Z,41.92
2022-08-16T10:13:39.487Z,41.20
2022-08-16T10:16:08.973Z,41.28
2022-08-16T10:19:01.033Z,42.43
2022-08-16T10:21:23.999Z,41.29
2022-08-16T10:23:53.682Z,41.68
2022-08-16T10:27:16.797Z,41.44
2022-08-16T10:29:08.371Z,39.19
2022-08-16T10:31:44.153Z,38.45
2022-08-16T10:34:30.875Z,38.72
2022-08-16T10:36:58.840Z,38.75
2022-08-16T10:39:25.636Z,38.63
2022-08-16T10:41:52.078Z,37.46
2022-08-16T10:44:18.502Z,36.72
2022-08-16T10:46:45.160Z,37.63
2022-08-16T10:49:12.839Z,37.10
2022-08-16T10:52:02.618Z,36.91
2022-08-16T10:54:31.015Z,38.15
2022-08-16T10:56:59.458Z,37.53
2022-08-16T10:59:38.191Z,39.62
2022-08-16T11:02:59.984Z,40.57
2022-08-16T11:05:07.072Z,40.42
2022-08-16T11:07:43.444Z,39.01
2022-08-16T11:10:59.144Z,40.02
2022-08-16T11:15:55.800Z,42.16
2022-08-16T11:19:03.481Z,40.69
2022-08-16T11:21:10.608Z,42.11
2022-08-16T11:23:58.743Z,41.81
2022-08-16T11:26:25.858Z,40.76
2022-08-16T11:31:40.286Z,40.77
2022-08-16T11:34:15.439Z,39.48
2022-08-16T11:36:53.928Z,39.43
2022-08-16T11:39:31.861Z,39.72
2022-08-16T11:42:00.706Z,40.52
2022-08-16T11:44:52.109Z,37.73
2022-08-16T11:47:15.409Z,39.35
2022-08-16T11:49:41.841Z,39.00
2022-08-16T11:52:08.282Z,36.42
2022-08-16T11:54:36.731Z,36.62
2022-08-16T11:57:09.354Z,37.09
2022-08-16T11:59:39.580Z,38.30
2022-08-16T12:02:32.522Z,35.84
2022-08-16T12:04:53.818Z,34.95
2022-08-16T12:07:20.988Z,34.66
2022-08-16T12:09:50.487Z,36.63
2022-08-16T12:12:19.734Z,35.75
2022-08-16T12:14:46.146Z,36.69
2022-08-16T12:17:14.253Z,36.04
2022-08-16T12:19:41.337Z,37.63
2022-08-16T12:22:19.281Z,38.00
2022-08-16T12:24:51.223Z,39.16
2022-08-16T12:27:23.040Z,39.36
2022-08-16T12:29:51.375Z,41.28
2022-08-16T12:32:35.909Z,42.34
2022-08-16T12:35:06.653Z,42.23
2022-08-16T12:37:33.807Z,42.66
2022-08-16T12:40:01.573Z,42.94
2022-08-16T12:42:34.772Z,43.38
2022-08-16T12:45:08.620Z,42.70
2022-08-16T12:48:10.063Z,42.09
2022-08-16T12:50:40.686Z,43.50
2022-08-16T12:53:07.152Z,43.77
2022-08-16T12:55:41.765Z,42.48
2022-08-16T12:58:13.702Z,43.78
2022-08-16T13:00:55.194Z,42.49
2022-08-16T13:03:21.775Z,42.05
2022-08-16T13:05:53.611Z,42.04
2022-08-16T13:08:22.874Z,42.82
2022-08-16T13:10:57.127Z,42.13
2022-08-16T13:13:24.939Z,42.19
2022-08-16T13:16:03.639Z,41.81
2022-08-16T13:18:35.724Z,40.93
2022-08-16T13:21:05.154Z,39.12
2022-08-16T13:23:32.416Z,40.78
2022-08-16T13:25:59.263Z,40.66
2022-08-16T13:28:26.047Z,41.00
2022-08-16T13:30:56.665Z,41.15
2022-08-16T13:33:30.173Z,40.72
2022-08-16T13:35:59.492Z,40.99
2022-08-16T13:38:30.187Z,40.98
2022-08-16T13:40:59.849Z,40.83
2022-08-16T13:43:27.447Z,40.64
2022-08-16T13:45:56.479Z,41.16
2022-08-16T13:48:25.891Z,41.74
2022-08-16T13:51:01.497Z,41.82
2022-08-16T13:53:30.810Z,42.46
2022-08-16T13:55:59.453Z,42.31
2022-08-16T13:58:34.739Z,41.64
2022-08-16T14:01:03.289Z,42.43
2022-08-16T14:03:30.414Z,43.14
2022-08-16T14:05:56.788Z,42.62
2022-08-16T14:08:27.163Z,43.91
2022-08-16T14:10:54.204Z,43.68
2022-08-16T14:13:21.261Z,43.57
2022-08-16T14:15:48.796Z,43.43
2022-08-16T14:18:20.341Z,43.36
2022-08-16T14:20:48.610Z,42.24
2022-08-16T14:23:15.539Z,40.77
2022-08-16T14:25:42.331Z,42.10
2022-08-16T14:28:09.620Z,42.23
2022-08-16T14:30:37.944Z,42.23
2022-08-16T14:33:07.021Z,42.04
2022-08-16T14:35:48.381Z,42.89
2022-08-16T14:38:18.001Z,43.30
2022-08-16T14:40:49.475Z,43.13
2022-08-16T14:43:19.854Z,43.21
2022-08-16T14:45:47.018Z,44.38
2022-08-16T14:48:21.426Z,44.29
2022-08-16T14:50:51.906Z,45.05
2022-08-16T14:53:20.421Z,45.21
2022-08-16T14:55:47.066Z,45.62
2022-08-16T14:58:19.479Z,45.76
2022-08-16T15:00:50.724Z,45.92
2022-08-16T15:03:21.795Z,46.02
2022-08-16T15:05:49.519Z,44.36
2022-08-16T15:08:20.730Z,45.07
2022-08-16T15:10:47.367Z,44.17
2022-08-16T15:13:15.311Z,44.76
2022-08-16T15:15:43.450Z,45.94
2022-08-16T15:18:11.997Z,46.39
2022-08-16T15:20:39.485Z,46.09
2022-08-16T15:23:08.513Z,46.26
2022-08-16T15:25:47.019Z,45.69
2022-08-16T15:28:31.908Z,46.07
2022-08-16T15:31:03.139Z,45.87
2022-08-16T15:33:33.348Z,45.26
2022-08-16T15:35:59.821Z,45.07
2022-08-16T15:38:57.640Z,45.20
2022-08-16T15:41:55.561Z,45.30
2022-08-16T15:44:25.647Z,45.60
2022-08-16T15:46:58.765Z,45.26
2022-08-16T15:49:34.814Z,45.55
2022-08-16T15:52:29.875Z,46.10
2022-08-16T15:54:59.310Z,46.87
2022-08-16T15:57:28.252Z,46.83
2022-08-16T16:00:04.934Z,46.88
2022-08-16T16:02:41.485Z,47.53
2022-08-16T16:05:09.611Z,47.74
2022-08-16T16:07:37.572Z,47.58
2022-08-16T16:10:13.447Z,48.46
2022-08-16T16:12:53.460Z,47.88
2022-08-16T16:15:24.444Z,48.19
2022-08-16T16:17:52.659Z,47.84
2022-08-16T16:20:21.661Z,48.16
2022-08-16T16:22:49.273Z,49.00
2022-08-16T16:25:17.766Z,47.87
2022-08-16T16:27:45.443Z,48.70
2022-08-16T16:30:33.535Z,47.06
2022-08-16T16:33:02.489Z,47.09
2022-08-16T16:35:32.732Z,46.78
2022-08-16T16:37:59.577Z,47.37
2022-08-16T16:40:32.226Z,48.31
2022-08-16T16:43:00.405Z,47.46
2022-08-16T16:45:34.622Z,47.20
2022-08-16T16:48:11.744Z,47.09
2022-08-16T16:50:43.653Z,46.75
2022-08-16T16:53:17.341Z,46.24
2022-08-16T16:55:52.221Z,46.93
2022-08-16T16:58:38.971Z,47.17
2022-08-16T17:01:09.781Z,47.27
2022-08-16T17:03:36.262Z,47.27
2022-08-16T17:06:09.129Z,47.20
2022-08-16T17:08:37.802Z,47.48
2022-08-16T17:11:08.083Z,47.13
2022-08-16T17:13:34.581Z,47.16
2022-08-16T17:16:02.158Z,47.14
2022-08-16T17:19:14.931Z,47.68
2022-08-16T17:21:16.732Z,47.71
2022-08-16T17:23:59.613Z,46.99
2022-08-16T17:26:31.164Z,47.16
2022-08-16T17:29:11.335Z,46.86
2022-08-16T17:31:40.895Z,46.48
2022-08-16T17:34:29.126Z,46.71
2022-08-16T17:36:58.835Z,46.20
2022-08-16T17:39:28.757Z,46.38
2022-08-16T17:41:57.082Z,46.19
2022-08-16T17:44:23.631Z,46.24
2022-08-16T17:46:52.248Z,46.18
2022-08-16T17:49:19.241Z,47.19
2022-08-16T17:51:45.666Z,48.31
2022-08-16T17:54:20.421Z,47.94
2022-08-16T17:57:00.894Z,48.06
2022-08-16T17:59:27.874Z,48.06
2022-08-16T18:01:54.481Z,48.24
2022-08-16T18:04:49.619Z,48.89
2022-08-16T18:07:08.308Z,48.77
2022-08-16T18:09:36.824Z,49.25
2022-08-16T18:12:44.082Z,48.78
2022-08-16T18:15:04.416Z,48.56
2022-08-16T18:17:31.926Z,48.94
2022-08-16T18:19:58.421Z,49.14
2022-08-16T18:22:30.577Z,48.83
2022-08-16T18:24:57.719Z,48.77
2022-08-16T18:27:25.836Z,49.17
2022-08-16T18:29:53.440Z,48.79
2022-08-16T18:32:22.171Z,48.94
2022-08-16T18:34:52.470Z,49.67
2022-08-16T18:37:20.245Z,49.38
2022-08-16T18:39:46.715Z,50.27
2022-08-16T18:42:14.763Z,52.11
2022-08-16T18:44:43.400Z,52.63
2022-08-16T18:47:10.433Z,52.92
2022-08-16T18:49:37.132Z,53.67
2022-08-16T18:52:04.086Z,53.63
2022-08-16T18:54:32.228Z,54.30
2022-08-16T18:56:58.739Z,54.45
2022-08-16T18:59:30.194Z,54.22
2022-08-16T19:02:04.380Z,54.80
2022-08-16T19:04:57.272Z,55.63
2022-08-16T19:07:30.606Z,55.99
2022-08-16T19:09:57.845Z,57.16
2022-08-16T19:12:38.700Z,57.54
2022-08-16T19:15:15.880Z,58.32
2022-08-16T19:17:44.120Z,59.12
2022-08-16T19:20:12.123Z,60.31
2022-08-16T19:23:02.042Z,61.50
2022-08-16T19:25:47.653Z,63.13
2022-08-16T19:28:44.268Z,63.47
2022-08-16T19:31:15.089Z,64.81
2022-08-16T19:33:53.769Z,64.81
2022-08-16T19:36:31.456Z,66.29
2022-08-16T19:39:05.447Z,66.48
2022-08-16T19:41:43.355Z,66.68
2022-08-16T19:44:10.177Z,67.29
2022-08-16T19:46:38.137Z,67.42
2022-08-16T19:49:04.847Z,67.91
2022-08-16T19:51:31.278Z,68.00
2022-08-16T19:53:57.704Z,68.36
2022-08-16T19:56:25.839Z,68.30
2022-08-16T19:59:17.380Z,68.53
2022-08-16T20:01:42.195Z,68.34
2022-08-16T20:04:12.137Z,69.32
2022-08-16T20:06:39.427Z,68.98
2022-08-16T20:09:06.796Z,69.43
2022-08-16T20:11:34.721Z,69.79
2022-08-16T20:14:01.831Z,70.01
2022-08-16T20:16:28.292Z,70.83
2022-08-16T20:18:54.708Z,70.68
2022-08-16T20:21:21.113Z,70.66
2022-08-16T20:23:47.517Z,70.99
2022-08-16T20:26:13.934Z,68.36
2022-08-16T20:28:54.095Z,69.70
2022-08-16T20:31:22.334Z,70.84
2022-08-16T20:33:49.309Z,71.28
2022-08-16T20:36:16.759Z,71.52
2022-08-16T20:38:46.801Z,71.93
2022-08-16T20:41:13.622Z,72.03
2022-08-16T20:43:40.205Z,71.70
2022-08-16T20:46:06.717Z,72.51
2022-08-16T20:48:33.163Z,72.69
2022-08-16T20:50:59.572Z,72.95
2022-08-16T20:53:25.978Z,72.52
2022-08-16T20:55:52.391Z,73.39
2022-08-16T20:58:18.820Z,73.09
2022-08-16T21:00:45.429Z,73.59
2022-08-16T21:03:13.218Z,74.13
2022-08-16T21:05:39.866Z,74.77
2022-08-16T21:08:52.753Z,74.53
2022-08-16T21:10:53.579Z,74.43
2022-08-16T21:13:20.869Z,73.94
2022-08-16T21:15:47.813Z,74.45
2022-08-16T21:18:14.849Z,74.04
2022-08-16T21:20:41.341Z,74.54
2022-08-16T21:23:10.016Z,75.51
2022-08-16T21:25:44.821Z,75.25
2022-08-16T21:28:40.025Z,75.51
2022-08-16T21:31:08.870Z,75.43
2022-08-16T21:33:35.933Z,75.67
2022-08-16T21:36:02.521Z,75.82
2022-08-16T21:38:30.868Z,75.65
2022-08-16T21:40:59.250Z,75.86
2022-08-16T21:43:28.645Z,75.89
2022-08-16T21:45:55.706Z,76.10
2022-08-16T21:48:33.871Z,75.75
2022-08-16T21:51:03.464Z,75.88
2022-08-16T21:53:30.032Z,76.45
2022-08-16T21:55:58.673Z,76.82
2022-08-16T21:58:25.657Z,76.95
2022-08-16T22:00:52.825Z,76.35
2022-08-16T22:03:19.745Z,76.14
2022-08-16T22:06:11.771Z,76.36
2022-08-16T22:08:35.747Z,76.32
2022-08-16T22:11:16.564Z,76.82
2022-08-16T22:13:42.957Z,76.93
2022-08-16T22:16:17.959Z,77.48
2022-08-16T22:18:52.391Z,77.45
2022-08-16T22:21:19.195Z,76.81
2022-08-16T22:23:45.701Z,77.37
2022-08-16T22:26:30.848Z,77.50
2022-08-16T22:29:03.335Z,77.33
2022-08-16T22:31:30.177Z,78.16
2022-08-16T22:33:57.227Z,77.47
2022-08-16T22:36:28.188Z,77.62
2022-08-16T22:38:58.040Z,78.25
2022-08-16T22:41:26.403Z,77.77
2022-08-16T22:43:52.842Z,77.90
2022-08-16T22:46:19.544Z,77.03
2022-08-16T22:48:46.206Z,77.78
2022-08-16T22:51:13.041Z,76.95
2022-08-16T22:53:39.475Z,77.79
2022-08-16T22:56:06.122Z,77.46
2022-08-16T22:58:36.488Z,77.46
2022-08-16T23:01:05.726Z,76.92
2022-08-16T23:03:33.110Z,77.14
2022-08-16T23:06:00.730Z,76.84
2022-08-16T23:08:38.434Z,76.85
2022-08-16T23:11:07.037Z,76.30
2022-08-16T23:13:33.494Z,76.35
2022-08-16T23:16:11.487Z,76.78
2022-08-16T23:18:38.806Z,76.26
2022-08-16T23:21:09.172Z,76.45
2022-08-16T23:23:36.748Z,76.38
2022-08-16T23:26:44.355Z,75.76
2022-08-16T23:28:50.779Z,75.85
2022-08-16T23:31:17.533Z,75.94
2022-08-16T23:33:44.336Z,76.41
2022-08-16T23:36:10.985Z,76.29
2022-08-16T23:38:39.473Z,76.08
2022-08-16T23:41:11.267Z,76.29
2022-08-16T23:43:43.055Z,75.48
2022-08-16T23:46:16.823Z,75.39
2022-08-16T23:49:56.028Z,75.48
2022-08-16T23:51:31.360Z,75.63
2022-08-16T23:53:57.891Z,75.25
2022-08-16T23:56:25.642Z,75.80
2022-08-16T23:59:01.830Z,75.36
